sensor_id;sensor_type;location;lat;lon;timestamp;temperature;humidity
41220;DHT22;26951;47.338;9.196;2023-12-07T00:01:00;1.50;73.10
41220;DHT22;26951;47.338;9.196;2023-12-07T00:03:44;1.50;72.70
41220;DHT22;26951;47.338;9.196;2023-12-07T00:06:28;1.50;72.80
41220;DHT22;26951;47.338;9.196;2023-12-07T00:09:13;1.50;73.00
41220;DHT22;26951;47.338;9.196;2023-12-07T00:11:57;1.50;72.80
41220;DHT22;26951;47.338;9.196;2023-12-07T00:14:41;1.50;73.10
41220;DHT22;26951;47.338;9.196;2023-12-07T00:17:25;1.50;73.20
41220;DHT22;26951;47.338;9.196;2023-12-07T00:20:10;1.50;73.20
41220;DHT22;26951;47.338;9.196;2023-12-07T00:22:55;1.50;73.10
41220;DHT22;26951;47.338;9.196;2023-12-07T00:25:39;1.50;72.70
41220;DHT22;26951;47.338;9.196;2023-12-07T00:28:24;1.50;72.40
41220;DHT22;26951;47.338;9.196;2023-12-07T00:31:09;1.50;71.90
41220;DHT22;26951;47.338;9.196;2023-12-07T00:33:54;1.50;71.70
41220;DHT22;26951;47.338;9.196;2023-12-07T00:36:38;1.50;71.40
41220;DHT22;26951;47.338;9.196;2023-12-07T00:39:24;1.40;71.00
41220;DHT22;26951;47.338;9.196;2023-12-07T00:42:09;1.40;70.70
41220;DHT22;26951;47.338;9.196;2023-12-07T00:44:53;1.40;70.50
41220;DHT22;26951;47.338;9.196;2023-12-07T00:47:38;1.40;70.60
41220;DHT22;26951;47.338;9.196;2023-12-07T00:50:22;1.40;70.60
41220;DHT22;26951;47.338;9.196;2023-12-07T00:53:06;1.40;70.60
41220;DHT22;26951;47.338;9.196;2023-12-07T00:55:50;1.40;70.80
41220;DHT22;26951;47.338;9.196;2023-12-07T00:58:34;1.40;71.00
41220;DHT22;26951;47.338;9.196;2023-12-07T01:01:19;1.40;70.90
41220;DHT22;26951;47.338;9.196;2023-12-07T01:04:03;1.40;71.00
41220;DHT22;26951;47.338;9.196;2023-12-07T01:06:48;1.30;71.00
41220;DHT22;26951;47.338;9.196;2023-12-07T01:09:33;1.30;71.00
41220;DHT22;26951;47.338;9.196;2023-12-07T01:12:17;1.30;71.20
41220;DHT22;26951;47.338;9.196;2023-12-07T01:15:01;1.30;71.40
41220;DHT22;26951;47.338;9.196;2023-12-07T01:17:46;1.20;71.40
41220;DHT22;26951;47.338;9.196;2023-12-07T01:20:30;1.30;71.50
41220;DHT22;26951;47.338;9.196;2023-12-07T01:23:14;1.30;71.40
41220;DHT22;26951;47.338;9.196;2023-12-07T01:25:58;1.30;71.20
41220;DHT22;26951;47.338;9.196;2023-12-07T01:28:46;1.40;71.10
41220;DHT22;26951;47.338;9.196;2023-12-07T01:31:30;1.40;71.10
41220;DHT22;26951;47.338;9.196;2023-12-07T01:34:16;1.40;71.10
41220;DHT22;26951;47.338;9.196;2023-12-07T01:37:00;1.40;71.20
41220;DHT22;26951;47.338;9.196;2023-12-07T01:39:44;1.40;71.00
41220;DHT22;26951;47.338;9.196;2023-12-07T01:42:29;1.30;70.50
41220;DHT22;26951;47.338;9.196;2023-12-07T01:45:12;1.30;70.30
41220;DHT22;26951;47.338;9.196;2023-12-07T01:47:57;1.30;70.50
41220;DHT22;26951;47.338;9.196;2023-12-07T01:50:42;1.30;70.70
41220;DHT22;26951;47.338;9.196;2023-12-07T01:53:26;1.30;71.10
41220;DHT22;26951;47.338;9.196;2023-12-07T01:56:12;1.30;71.20
41220;DHT22;26951;47.338;9.196;2023-12-07T01:58:57;1.30;71.30
41220;DHT22;26951;47.338;9.196;2023-12-07T02:04:17;1.30;70.80
41220;DHT22;26951;47.338;9.196;2023-12-07T02:07:01;1.30;70.90
41220;DHT22;26951;47.338;9.196;2023-12-07T02:09:46;1.30;71.00
41220;DHT22;26951;47.338;9.196;2023-12-07T02:12:30;1.30;70.90
41220;DHT22;26951;47.338;9.196;2023-12-07T02:15:16;1.30;71.90
41220;DHT22;26951;47.338;9.196;2023-12-07T02:18:14;1.30;71.40
41220;DHT22;26951;47.338;9.196;2023-12-07T02:21:16;1.30;71.30
41220;DHT22;26951;47.338;9.196;2023-12-07T02:24:02;1.30;71.50
41220;DHT22;26951;47.338;9.196;2023-12-07T02:26:53;1.30;71.90
41220;DHT22;26951;47.338;9.196;2023-12-07T02:29:37;1.30;72.00
41220;DHT22;26951;47.338;9.196;2023-12-07T02:50:37;1.20;69.20
41220;DHT22;26951;47.338;9.196;2023-12-07T02:53:21;1.20;68.30
41220;DHT22;26951;47.338;9.196;2023-12-07T02:56:06;1.10;67.70
41220;DHT22;26951;47.338;9.196;2023-12-07T02:58:50;1.10;67.70
41220;DHT22;26951;47.338;9.196;2023-12-07T03:01:34;1.00;67.60
41220;DHT22;26951;47.338;9.196;2023-12-07T03:04:19;1.00;67.60
41220;DHT22;26951;47.338;9.196;2023-12-07T03:07:04;0.90;67.80
41220;DHT22;26951;47.338;9.196;2023-12-07T03:09:49;0.90;67.80
41220;DHT22;26951;47.338;9.196;2023-12-07T03:12:33;0.90;68.10
41220;DHT22;26951;47.338;9.196;2023-12-07T03:15:17;0.80;67.90
41220;DHT22;26951;47.338;9.196;2023-12-07T03:18:01;0.80;67.10
41220;DHT22;26951;47.338;9.196;2023-12-07T03:20:45;0.80;66.80
41220;DHT22;26951;47.338;9.196;2023-12-07T03:23:30;0.70;66.80
41220;DHT22;26951;47.338;9.196;2023-12-07T03:26:14;0.70;66.80
41220;DHT22;26951;47.338;9.196;2023-12-07T03:28:59;0.60;66.20
41220;DHT22;26951;47.338;9.196;2023-12-07T03:31:43;0.60;65.20
41220;DHT22;26951;47.338;9.196;2023-12-07T03:34:27;0.60;64.50
41220;DHT22;26951;47.338;9.196;2023-12-07T03:37:11;0.50;64.00
41220;DHT22;26951;47.338;9.196;2023-12-07T03:39:55;0.40;63.30
41220;DHT22;26951;47.338;9.196;2023-12-07T03:42:39;0.30;62.90
41220;DHT22;26951;47.338;9.196;2023-12-07T03:45:23;0.20;63.00
41220;DHT22;26951;47.338;9.196;2023-12-07T03:48:08;0.10;63.10
41220;DHT22;26951;47.338;9.196;2023-12-07T03:50:52;0.10;62.90
41220;DHT22;26951;47.338;9.196;2023-12-07T03:53:36;0.00;62.40
41220;DHT22;26951;47.338;9.196;2023-12-07T03:56:28;0.00;62.20
41220;DHT22;26951;47.338;9.196;2023-12-07T03:59:13;-0.10;62.00
41220;DHT22;26951;47.338;9.196;2023-12-07T04:01:57;-0.10;62.00
41220;DHT22;26951;47.338;9.196;2023-12-07T04:04:41;-0.10;62.20
41220;DHT22;26951;47.338;9.196;2023-12-07T04:07:26;-0.20;61.90
41220;DHT22;26951;47.338;9.196;2023-12-07T04:10:10;-0.20;60.80
41220;DHT22;26951;47.338;9.196;2023-12-07T04:12:54;-0.20;59.60
41220;DHT22;26951;47.338;9.196;2023-12-07T04:15:38;-0.30;59.80
41220;DHT22;26951;47.338;9.196;2023-12-07T04:18:23;-0.30;60.20
41220;DHT22;26951;47.338;9.196;2023-12-07T04:21:07;-0.30;60.70
41220;DHT22;26951;47.338;9.196;2023-12-07T04:23:51;-0.30;61.40
41220;DHT22;26951;47.338;9.196;2023-12-07T04:26:35;-0.30;60.80
41220;DHT22;26951;47.338;9.196;2023-12-07T04:29:19;-0.30;60.70
41220;DHT22;26951;47.338;9.196;2023-12-07T04:32:04;-0.40;61.10
41220;DHT22;26951;47.338;9.196;2023-12-07T04:34:48;-0.40;61.60
41220;DHT22;26951;47.338;9.196;2023-12-07T04:37:33;-0.40;61.60
41220;DHT22;26951;47.338;9.196;2023-12-07T04:40:17;-0.40;62.20
41220;DHT22;26951;47.338;9.196;2023-12-07T04:43:01;-0.30;62.80
41220;DHT22;26951;47.338;9.196;2023-12-07T04:45:45;-0.30;63.50
41220;DHT22;26951;47.338;9.196;2023-12-07T04:48:30;-0.30;64.00
41220;DHT22;26951;47.338;9.196;2023-12-07T04:51:14;-0.30;65.00
41220;DHT22;26951;47.338;9.196;2023-12-07T04:53:58;-0.40;65.80
41220;DHT22;26951;47.338;9.196;2023-12-07T04:56:43;-0.30;66.70
41220;DHT22;26951;47.338;9.196;2023-12-07T04:59:27;-0.30;67.20
41220;DHT22;26951;47.338;9.196;2023-12-07T05:02:11;-0.30;67.80
41220;DHT22;26951;47.338;9.196;2023-12-07T05:04:55;-0.30;68.40
41220;DHT22;26951;47.338;9.196;2023-12-07T05:07:39;-0.20;68.70
41220;DHT22;26951;47.338;9.196;2023-12-07T05:10:23;-0.20;69.20
41220;DHT22;26951;47.338;9.196;2023-12-07T05:13:07;-0.20;69.70
41220;DHT22;26951;47.338;9.196;2023-12-07T05:15:52;-0.20;70.10
41220;DHT22;26951;47.338;9.196;2023-12-07T05:18:36;-0.10;70.40
41220;DHT22;26951;47.338;9.196;2023-12-07T05:21:20;-0.10;70.70
41220;DHT22;26951;47.338;9.196;2023-12-07T05:24:04;0.00;71.00
41220;DHT22;26951;47.338;9.196;2023-12-07T05:26:48;0.00;71.10
41220;DHT22;26951;47.338;9.196;2023-12-07T05:29:32;0.10;71.30
41220;DHT22;26951;47.338;9.196;2023-12-07T05:32:16;0.10;71.40
41220;DHT22;26951;47.338;9.196;2023-12-07T05:35:02;0.10;71.40
41220;DHT22;26951;47.338;9.196;2023-12-07T05:37:46;0.20;71.40
41220;DHT22;26951;47.338;9.196;2023-12-07T05:40:30;0.20;70.90
41220;DHT22;26951;47.338;9.196;2023-12-07T05:43:15;0.20;70.50
41220;DHT22;26951;47.338;9.196;2023-12-07T05:45:59;0.20;70.10
41220;DHT22;26951;47.338;9.196;2023-12-07T05:48:44;0.20;69.60
41220;DHT22;26951;47.338;9.196;2023-12-07T05:51:28;0.20;69.10
41220;DHT22;26951;47.338;9.196;2023-12-07T05:54:12;0.20;68.60
41220;DHT22;26951;47.338;9.196;2023-12-07T05:56:56;0.20;68.00
41220;DHT22;26951;47.338;9.196;2023-12-07T05:59:40;0.20;68.10
41220;DHT22;26951;47.338;9.196;2023-12-07T06:02:26;0.30;67.50
41220;DHT22;26951;47.338;9.196;2023-12-07T06:05:10;0.20;67.90
41220;DHT22;26951;47.338;9.196;2023-12-07T06:07:54;0.20;67.80
41220;DHT22;26951;47.338;9.196;2023-12-07T06:10:39;0.20;68.40
41220;DHT22;26951;47.338;9.196;2023-12-07T06:13:23;0.20;68.60
41220;DHT22;26951;47.338;9.196;2023-12-07T06:16:11;0.20;68.10
41220;DHT22;26951;47.338;9.196;2023-12-07T06:18:56;0.10;67.70
41220;DHT22;26951;47.338;9.196;2023-12-07T06:21:40;0.10;67.60
41220;DHT22;26951;47.338;9.196;2023-12-07T06:24:24;0.10;68.10
41220;DHT22;26951;47.338;9.196;2023-12-07T06:27:08;0.10;67.10
41220;DHT22;26951;47.338;9.196;2023-12-07T06:29:53;0.00;66.60
41220;DHT22;26951;47.338;9.196;2023-12-07T06:32:37;0.00;66.80
41220;DHT22;26951;47.338;9.196;2023-12-07T06:35:23;-0.10;66.60
41220;DHT22;26951;47.338;9.196;2023-12-07T06:38:07;-0.10;66.60
41220;DHT22;26951;47.338;9.196;2023-12-07T06:40:51;-0.10;66.60
41220;DHT22;26951;47.338;9.196;2023-12-07T06:43:35;-0.20;66.70
41220;DHT22;26951;47.338;9.196;2023-12-07T06:46:20;-0.20;66.90
41220;DHT22;26951;47.338;9.196;2023-12-07T06:49:04;-0.30;66.50
41220;DHT22;26951;47.338;9.196;2023-12-07T06:51:48;-0.30;66.80
41220;DHT22;26951;47.338;9.196;2023-12-07T06:54:32;-0.40;66.80
41220;DHT22;26951;47.338;9.196;2023-12-07T06:57:16;-0.40;66.90
41220;DHT22;26951;47.338;9.196;2023-12-07T07:00:00;-0.50;67.10
41220;DHT22;26951;47.338;9.196;2023-12-07T07:02:49;-0.50;67.10
41220;DHT22;26951;47.338;9.196;2023-12-07T07:05:33;-0.60;67.30
41220;DHT22;26951;47.338;9.196;2023-12-07T07:08:17;-0.60;67.50
41220;DHT22;26951;47.338;9.196;2023-12-07T07:11:08;-0.60;67.40
41220;DHT22;26951;47.338;9.196;2023-12-07T07:13:54;-0.50;66.90
41220;DHT22;26951;47.338;9.196;2023-12-07T07:16:38;-0.60;66.20
41220;DHT22;26951;47.338;9.196;2023-12-07T07:19:22;-0.60;65.60
41220;DHT22;26951;47.338;9.196;2023-12-07T07:22:06;-0.70;65.90
41220;DHT22;26951;47.338;9.196;2023-12-07T07:24:50;-0.70;66.00
41220;DHT22;26951;47.338;9.196;2023-12-07T07:27:34;-0.70;65.50
41220;DHT22;26951;47.338;9.196;2023-12-07T07:30:18;-0.80;65.00
41220;DHT22;26951;47.338;9.196;2023-12-07T07:33:02;-0.80;64.50
41220;DHT22;26951;47.338;9.196;2023-12-07T07:35:47;-0.80;64.10
41220;DHT22;26951;47.338;9.196;2023-12-07T07:38:31;-0.90;63.90
41220;DHT22;26951;47.338;9.196;2023-12-07T07:41:15;-1.00;63.30
41220;DHT22;26951;47.338;9.196;2023-12-07T07:43:59;-1.00;63.20
41220;DHT22;26951;47.338;9.196;2023-12-07T07:46:43;-1.10;63.10
41220;DHT22;26951;47.338;9.196;2023-12-07T07:49:27;-1.10;63.70
41220;DHT22;26951;47.338;9.196;2023-12-07T07:52:11;-1.20;62.50
41220;DHT22;26951;47.338;9.196;2023-12-07T07:54:55;-1.20;61.50
41220;DHT22;26951;47.338;9.196;2023-12-07T07:57:40;-1.20;60.60
41220;DHT22;26951;47.338;9.196;2023-12-07T08:00:24;-1.20;59.80
41220;DHT22;26951;47.338;9.196;2023-12-07T08:03:12;-1.20;58.90
41220;DHT22;26951;47.338;9.196;2023-12-07T08:05:57;-1.30;57.90
41220;DHT22;26951;47.338;9.196;2023-12-07T08:08:41;-1.40;57.20
41220;DHT22;26951;47.338;9.196;2023-12-07T08:11:25;-1.50;56.90
41220;DHT22;26951;47.338;9.196;2023-12-07T08:14:09;-1.60;56.40
41220;DHT22;26951;47.338;9.196;2023-12-07T08:16:53;-1.60;56.30
41220;DHT22;26951;47.338;9.196;2023-12-07T08:19:37;-1.60;55.80
41220;DHT22;26951;47.338;9.196;2023-12-07T08:22:22;-1.70;53.90
41220;DHT22;26951;47.338;9.196;2023-12-07T08:25:07;-1.80;52.80
41220;DHT22;26951;47.338;9.196;2023-12-07T08:27:52;-1.80;53.50
41220;DHT22;26951;47.338;9.196;2023-12-07T08:30:36;-1.90;53.30
41220;DHT22;26951;47.338;9.196;2023-12-07T08:33:20;-2.00;52.80
41220;DHT22;26951;47.338;9.196;2023-12-07T08:36:05;-2.10;52.60
41220;DHT22;26951;47.338;9.196;2023-12-07T08:38:51;-2.20;52.90
41220;DHT22;26951;47.338;9.196;2023-12-07T08:41:35;-2.30;53.20
41220;DHT22;26951;47.338;9.196;2023-12-07T08:44:20;-2.30;53.20
41220;DHT22;26951;47.338;9.196;2023-12-07T08:47:04;-2.40;53.70
41220;DHT22;26951;47.338;9.196;2023-12-07T08:49:49;-2.40;54.70
41220;DHT22;26951;47.338;9.196;2023-12-07T08:52:35;-2.40;55.40
41220;DHT22;26951;47.338;9.196;2023-12-07T08:55:19;-2.40;55.20
41220;DHT22;26951;47.338;9.196;2023-12-07T08:58:03;-2.40;54.00
41220;DHT22;26951;47.338;9.196;2023-12-07T09:00:48;-2.50;54.20
41220;DHT22;26951;47.338;9.196;2023-12-07T09:03:32;-2.50;54.00
41220;DHT22;26951;47.338;9.196;2023-12-07T09:06:16;-2.60;53.90
41220;DHT22;26951;47.338;9.196;2023-12-07T09:09:02;-2.60;53.20
41220;DHT22;26951;47.338;9.196;2023-12-07T09:11:48;-2.60;53.50
41220;DHT22;26951;47.338;9.196;2023-12-07T09:14:32;-2.60;53.80
41220;DHT22;26951;47.338;9.196;2023-12-07T09:17:17;-2.60;54.40
41220;DHT22;26951;47.338;9.196;2023-12-07T09:20:04;-2.50;55.60
41220;DHT22;26951;47.338;9.196;2023-12-07T09:22:48;-2.20;57.50
41220;DHT22;26951;47.338;9.196;2023-12-07T09:25:32;-1.90;58.80
41220;DHT22;26951;47.338;9.196;2023-12-07T09:28:16;-1.60;60.20
41220;DHT22;26951;47.338;9.196;2023-12-07T09:31:00;-1.20;61.10
41220;DHT22;26951;47.338;9.196;2023-12-07T09:33:44;-0.80;61.50
41220;DHT22;26951;47.338;9.196;2023-12-07T09:36:29;-0.40;61.60
41220;DHT22;26951;47.338;9.196;2023-12-07T09:39:14;0.00;60.90
41220;DHT22;26951;47.338;9.196;2023-12-07T09:41:59;0.40;61.40
41220;DHT22;26951;47.338;9.196;2023-12-07T09:44:43;0.80;62.10
41220;DHT22;26951;47.338;9.196;2023-12-07T09:47:28;1.30;61.80
41220;DHT22;26951;47.338;9.196;2023-12-07T09:50:15;1.70;60.10
41220;DHT22;26951;47.338;9.196;2023-12-07T09:53:00;2.10;59.60
41220;DHT22;26951;47.338;9.196;2023-12-07T09:55:46;2.40;58.70
41220;DHT22;26951;47.338;9.196;2023-12-07T09:58:31;2.80;58.30
41220;DHT22;26951;47.338;9.196;2023-12-07T10:01:15;3.10;56.40
41220;DHT22;26951;47.338;9.196;2023-12-07T10:04:20;3.40;53.80
41220;DHT22;26951;47.338;9.196;2023-12-07T10:07:04;3.80;53.00
41220;DHT22;26951;47.338;9.196;2023-12-07T10:09:49;4.10;52.40
41220;DHT22;26951;47.338;9.196;2023-12-07T10:12:35;4.30;49.40
41220;DHT22;26951;47.338;9.196;2023-12-07T10:15:20;4.50;49.10
41220;DHT22;26951;47.338;9.196;2023-12-07T10:18:05;4.70;47.00
41220;DHT22;26951;47.338;9.196;2023-12-07T10:20:52;4.80;45.90
41220;DHT22;26951;47.338;9.196;2023-12-07T10:23:40;4.90;44.50
41220;DHT22;26951;47.338;9.196;2023-12-07T10:26:25;4.90;43.80
41220;DHT22;26951;47.338;9.196;2023-12-07T10:29:09;5.00;45.00
41220;DHT22;26951;47.338;9.196;2023-12-07T10:32:00;5.20;44.30
41220;DHT22;26951;47.338;9.196;2023-12-07T10:34:45;5.30;43.90
41220;DHT22;26951;47.338;9.196;2023-12-07T10:37:30;5.40;42.90
41220;DHT22;26951;47.338;9.196;2023-12-07T10:40:14;5.50;42.50
41220;DHT22;26951;47.338;9.196;2023-12-07T10:43:02;5.70;41.90
41220;DHT22;26951;47.338;9.196;2023-12-07T10:45:48;5.70;40.20
41220;DHT22;26951;47.338;9.196;2023-12-07T10:48:33;5.80;40.80
41220;DHT22;26951;47.338;9.196;2023-12-07T10:51:38;5.90;40.70
41220;DHT22;26951;47.338;9.196;2023-12-07T10:54:29;6.00;40.80
41220;DHT22;26951;47.338;9.196;2023-12-07T10:57:14;6.10;39.10
41220;DHT22;26951;47.338;9.196;2023-12-07T11:00:00;6.20;39.70
41220;DHT22;26951;47.338;9.196;2023-12-07T11:02:45;6.30;39.70
41220;DHT22;26951;47.338;9.196;2023-12-07T11:05:30;6.50;39.60
41220;DHT22;26951;47.338;9.196;2023-12-07T11:08:46;6.60;38.70
41220;DHT22;26951;47.338;9.196;2023-12-07T11:11:41;6.70;37.30
41220;DHT22;26951;47.338;9.196;2023-12-07T11:14:28;6.70;36.80
41220;DHT22;26951;47.338;9.196;2023-12-07T11:17:14;6.80;37.20
41220;DHT22;26951;47.338;9.196;2023-12-07T11:19:59;6.90;37.70
41220;DHT22;26951;47.338;9.196;2023-12-07T11:22:43;7.00;36.00
41220;DHT22;26951;47.338;9.196;2023-12-07T11:25:27;7.10;36.10
41220;DHT22;26951;47.338;9.196;2023-12-07T11:28:12;7.10;36.10
41220;DHT22;26951;47.338;9.196;2023-12-07T11:30:56;7.10;35.50
41220;DHT22;26951;47.338;9.196;2023-12-07T11:33:41;7.20;35.60
41220;DHT22;26951;47.338;9.196;2023-12-07T11:36:26;7.10;34.80
41220;DHT22;26951;47.338;9.196;2023-12-07T11:41:55;7.00;35.80
41220;DHT22;26951;47.338;9.196;2023-12-07T11:44:41;7.00;36.00
41220;DHT22;26951;47.338;9.196;2023-12-07T11:47:25;7.00;36.10
41220;DHT22;26951;47.338;9.196;2023-12-07T11:50:10;7.10;35.70
41220;DHT22;26951;47.338;9.196;2023-12-07T11:52:55;7.30;36.00
41220;DHT22;26951;47.338;9.196;2023-12-07T11:55:39;7.40;35.50
41220;DHT22;26951;47.338;9.196;2023-12-07T11:58:27;7.50;35.20
41220;DHT22;26951;47.338;9.196;2023-12-07T12:01:11;7.60;35.30
41220;DHT22;26951;47.338;9.196;2023-12-07T12:03:56;7.80;35.20
41220;DHT22;26951;47.338;9.196;2023-12-07T12:06:42;7.90;34.40
41220;DHT22;26951;47.338;9.196;2023-12-07T12:09:27;8.00;35.10
41220;DHT22;26951;47.338;9.196;2023-12-07T12:12:11;8.00;34.20
41220;DHT22;26951;47.338;9.196;2023-12-07T12:14:55;8.00;34.30
41220;DHT22;26951;47.338;9.196;2023-12-07T12:17:40;7.90;33.90
41220;DHT22;26951;47.338;9.196;2023-12-07T12:20:25;7.90;33.40
41220;DHT22;26951;47.338;9.196;2023-12-07T12:23:09;7.90;33.60
41220;DHT22;26951;47.338;9.196;2023-12-07T12:25:54;7.90;33.30
41220;DHT22;26951;47.338;9.196;2023-12-07T12:28:38;7.80;32.50
41220;DHT22;26951;47.338;9.196;2023-12-07T12:31:26;7.70;32.60
41220;DHT22;26951;47.338;9.196;2023-12-07T12:34:11;7.60;33.30
41220;DHT22;26951;47.338;9.196;2023-12-07T12:36:58;7.50;33.20
41220;DHT22;26951;47.338;9.196;2023-12-07T12:39:42;7.50;33.10
41220;DHT22;26951;47.338;9.196;2023-12-07T12:42:26;7.50;33.50
41220;DHT22;26951;47.338;9.196;2023-12-07T12:45:10;7.50;32.90
41220;DHT22;26951;47.338;9.196;2023-12-07T12:47:56;7.40;33.50
41220;DHT22;26951;47.338;9.196;2023-12-07T12:50:41;7.30;33.40
41220;DHT22;26951;47.338;9.196;2023-12-07T12:53:26;7.20;34.30
41220;DHT22;26951;47.338;9.196;2023-12-07T12:56:10;7.10;34.70
41220;DHT22;26951;47.338;9.196;2023-12-07T12:58:55;7.10;34.30
41220;DHT22;26951;47.338;9.196;2023-12-07T13:01:39;7.00;34.50
41220;DHT22;26951;47.338;9.196;2023-12-07T13:04:23;6.80;35.00
41220;DHT22;26951;47.338;9.196;2023-12-07T13:07:08;6.70;35.80
41220;DHT22;26951;47.338;9.196;2023-12-07T13:09:53;6.70;35.00
41220;DHT22;26951;47.338;9.196;2023-12-07T13:12:37;6.50;34.70
41220;DHT22;26951;47.338;9.196;2023-12-07T13:15:21;6.40;35.30
41220;DHT22;26951;47.338;9.196;2023-12-07T13:18:05;6.30;35.70
41220;DHT22;26951;47.338;9.196;2023-12-07T13:20:49;6.30;36.60
41220;DHT22;26951;47.338;9.196;2023-12-07T13:23:33;6.30;36.60
41220;DHT22;26951;47.338;9.196;2023-12-07T13:26:19;6.20;35.80
41220;DHT22;26951;47.338;9.196;2023-12-07T13:29:03;6.00;35.40
41220;DHT22;26951;47.338;9.196;2023-12-07T13:31:47;5.90;35.90
41220;DHT22;26951;47.338;9.196;2023-12-07T13:34:33;5.70;35.80
41220;DHT22;26951;47.338;9.196;2023-12-07T13:37:17;5.40;35.40
41220;DHT22;26951;47.338;9.196;2023-12-07T13:40:02;5.10;35.90
41220;DHT22;26951;47.338;9.196;2023-12-07T13:42:47;4.90;36.30
41220;DHT22;26951;47.338;9.196;2023-12-07T13:45:31;4.70;37.20
41220;DHT22;26951;47.338;9.196;2023-12-07T13:48:16;4.50;37.80
41220;DHT22;26951;47.338;9.196;2023-12-07T13:51:00;4.30;38.00
41220;DHT22;26951;47.338;9.196;2023-12-07T13:53:44;4.20;38.50
41220;DHT22;26951;47.338;9.196;2023-12-07T13:56:28;4.10;39.70
41220;DHT22;26951;47.338;9.196;2023-12-07T13:59:12;4.00;40.20
41220;DHT22;26951;47.338;9.196;2023-12-07T14:01:57;3.90;40.90
41220;DHT22;26951;47.338;9.196;2023-12-07T14:04:42;3.70;40.60
41220;DHT22;26951;47.338;9.196;2023-12-07T14:07:26;3.60;40.00
41220;DHT22;26951;47.338;9.196;2023-12-07T14:10:10;3.40;39.60
41220;DHT22;26951;47.338;9.196;2023-12-07T14:12:54;3.20;40.00
41220;DHT22;26951;47.338;9.196;2023-12-07T14:15:38;3.10;40.90
41220;DHT22;26951;47.338;9.196;2023-12-07T14:18:22;3.00;42.00
41220;DHT22;26951;47.338;9.196;2023-12-07T14:21:06;3.00;41.70
41220;DHT22;26951;47.338;9.196;2023-12-07T14:23:50;3.00;41.20
41220;DHT22;26951;47.338;9.196;2023-12-07T14:26:36;3.00;40.70
41220;DHT22;26951;47.338;9.196;2023-12-07T14:29:21;2.90;40.70
41220;DHT22;26951;47.338;9.196;2023-12-07T14:32:05;2.90;40.10
41220;DHT22;26951;47.338;9.196;2023-12-07T14:34:49;2.80;39.80
41220;DHT22;26951;47.338;9.196;2023-12-07T14:37:33;2.90;40.90
41220;DHT22;26951;47.338;9.196;2023-12-07T14:40:18;3.10;40.20
41220;DHT22;26951;47.338;9.196;2023-12-07T14:43:03;3.10;38.80
41220;DHT22;26951;47.338;9.196;2023-12-07T14:45:47;3.20;38.40
41220;DHT22;26951;47.338;9.196;2023-12-07T14:48:31;3.20;39.20
41220;DHT22;26951;47.338;9.196;2023-12-07T14:51:19;3.10;38.70
41220;DHT22;26951;47.338;9.196;2023-12-07T14:54:07;2.80;38.10
41220;DHT22;26951;47.338;9.196;2023-12-07T14:56:51;2.50;38.90
41220;DHT22;26951;47.338;9.196;2023-12-07T14:59:35;2.20;40.40
41220;DHT22;26951;47.338;9.196;2023-12-07T15:02:19;1.90;41.40
41220;DHT22;26951;47.338;9.196;2023-12-07T15:05:03;1.50;42.60
41220;DHT22;26951;47.338;9.196;2023-12-07T15:07:48;1.30;43.00
41220;DHT22;26951;47.338;9.196;2023-12-07T15:10:32;1.10;43.60
41220;DHT22;26951;47.338;9.196;2023-12-07T15:13:16;0.90;44.60
41220;DHT22;26951;47.338;9.196;2023-12-07T15:16:00;0.70;46.10
41220;DHT22;26951;47.338;9.196;2023-12-07T15:18:44;0.60;46.80
41220;DHT22;26951;47.338;9.196;2023-12-07T15:21:29;0.50;47.10
41220;DHT22;26951;47.338;9.196;2023-12-07T15:24:14;0.40;44.90
41220;DHT22;26951;47.338;9.196;2023-12-07T15:26:58;0.30;44.30
41220;DHT22;26951;47.338;9.196;2023-12-07T15:29:42;0.20;43.40
41220;DHT22;26951;47.338;9.196;2023-12-07T15:32:26;0.00;42.80
41220;DHT22;26951;47.338;9.196;2023-12-07T15:35:10;-0.20;43.60
41220;DHT22;26951;47.338;9.196;2023-12-07T15:37:54;-0.30;46.10
41220;DHT22;26951;47.338;9.196;2023-12-07T15:40:39;-0.40;46.70
41220;DHT22;26951;47.338;9.196;2023-12-07T15:43:23;-0.50;45.70
41220;DHT22;26951;47.338;9.196;2023-12-07T15:46:08;-0.60;44.60
41220;DHT22;26951;47.338;9.196;2023-12-07T15:48:52;-0.70;45.20
41220;DHT22;26951;47.338;9.196;2023-12-07T15:51:36;-0.80;47.30
41220;DHT22;26951;47.338;9.196;2023-12-07T15:54:20;-0.90;48.10
41220;DHT22;26951;47.338;9.196;2023-12-07T15:57:05;-0.90;48.50
41220;DHT22;26951;47.338;9.196;2023-12-07T15:59:49;-1.00;48.50
41220;DHT22;26951;47.338;9.196;2023-12-07T16:02:34;-1.10;48.60
41220;DHT22;26951;47.338;9.196;2023-12-07T16:05:19;-1.10;46.90
41220;DHT22;26951;47.338;9.196;2023-12-07T16:08:04;-1.20;45.80
41220;DHT22;26951;47.338;9.196;2023-12-07T16:10:48;-1.20;45.30
41220;DHT22;26951;47.338;9.196;2023-12-07T16:13:32;-1.40;44.60
41220;DHT22;26951;47.338;9.196;2023-12-07T16:16:16;-1.50;45.60
41220;DHT22;26951;47.338;9.196;2023-12-07T16:19:00;-1.60;47.60
41220;DHT22;26951;47.338;9.196;2023-12-07T16:21:44;-1.70;49.00
41220;DHT22;26951;47.338;9.196;2023-12-07T16:24:28;-1.70;49.00
41220;DHT22;26951;47.338;9.196;2023-12-07T16:27:13;-1.70;49.40
41220;DHT22;26951;47.338;9.196;2023-12-07T16:29:58;-1.80;49.60
41220;DHT22;26951;47.338;9.196;2023-12-07T16:32:42;-1.80;50.30
41220;DHT22;26951;47.338;9.196;2023-12-07T16:35:28;-1.70;49.10
41220;DHT22;26951;47.338;9.196;2023-12-07T16:38:12;-1.80;48.00
41220;DHT22;26951;47.338;9.196;2023-12-07T16:40:56;-1.90;46.90
41220;DHT22;26951;47.338;9.196;2023-12-07T16:43:41;-1.90;46.60
41220;DHT22;26951;47.338;9.196;2023-12-07T16:46:26;-2.10;47.00
41220;DHT22;26951;47.338;9.196;2023-12-07T16:49:11;-2.10;49.10
41220;DHT22;26951;47.338;9.196;2023-12-07T16:51:55;-2.20;50.40
41220;DHT22;26951;47.338;9.196;2023-12-07T16:54:39;-2.10;51.10
41220;DHT22;26951;47.338;9.196;2023-12-07T16:57:24;-2.10;52.60
41220;DHT22;26951;47.338;9.196;2023-12-07T17:00:08;-2.10;53.20
41220;DHT22;26951;47.338;9.196;2023-12-07T17:02:54;-2.00;51.40
41220;DHT22;26951;47.338;9.196;2023-12-07T17:05:38;-2.10;51.50
41220;DHT22;26951;47.338;9.196;2023-12-07T17:08:24;-2.10;51.80
41220;DHT22;26951;47.338;9.196;2023-12-07T17:11:09;-2.10;52.30
41220;DHT22;26951;47.338;9.196;2023-12-07T17:13:53;-2.10;52.60
41220;DHT22;26951;47.338;9.196;2023-12-07T17:16:37;-2.10;53.10
41220;DHT22;26951;47.338;9.196;2023-12-07T17:19:21;-2.10;53.30
41220;DHT22;26951;47.338;9.196;2023-12-07T17:22:07;-2.10;52.90
41220;DHT22;26951;47.338;9.196;2023-12-07T17:24:52;-2.10;52.90
41220;DHT22;26951;47.338;9.196;2023-12-07T17:27:37;-2.10;52.30
41220;DHT22;26951;47.338;9.196;2023-12-07T17:30:21;-2.20;52.20
41220;DHT22;26951;47.338;9.196;2023-12-07T17:33:05;-2.20;51.90
41220;DHT22;26951;47.338;9.196;2023-12-07T17:35:49;-2.20;52.30
41220;DHT22;26951;47.338;9.196;2023-12-07T17:38:33;-2.20;52.50
41220;DHT22;26951;47.338;9.196;2023-12-07T17:41:17;-2.20;52.60
41220;DHT22;26951;47.338;9.196;2023-12-07T17:44:02;-2.20;51.60
41220;DHT22;26951;47.338;9.196;2023-12-07T17:46:46;-2.20;48.90
41220;DHT22;26951;47.338;9.196;2023-12-07T17:49:30;-2.30;49.50
41220;DHT22;26951;47.338;9.196;2023-12-07T17:52:16;-2.30;47.60
41220;DHT22;26951;47.338;9.196;2023-12-07T17:55:00;-2.50;46.60